createdAt,value
2023-02-04T00:00:48.493Z,1.40
2023-02-04T00:03:17.237Z,0.90
2023-02-04T00:05:45.848Z,3.42
2023-02-04T00:08:14.492Z,2.15
2023-02-04T00:10:44.434Z,1.98
2023-02-04T00:13:12.973Z,3.65
2023-02-04T00:15:41.591Z,1.50
2023-02-04T00:18:10.212Z,1.40
2023-02-04T00:20:39.225Z,1.50
2023-02-04T00:23:07.973Z,1.00
2023-02-04T00:25:38.034Z,1.65
2023-02-04T00:28:09.661Z,1.13
2023-02-04T00:30:38.278Z,0.90
2023-02-04T00:33:06.833Z,1.13
2023-02-04T00:35:37.258Z,0.90
2023-02-04T00:38:05.841Z,2.38
2023-02-04T00:40:34.448Z,1.30
2023-02-04T00:43:02.970Z,1.15
2023-02-04T00:45:32.920Z,1.05
2023-02-04T00:48:01.496Z,1.50
2023-02-04T00:50:30.372Z,1.08
2023-02-04T00:53:01.874Z,2.45
2023-02-04T00:55:31.064Z,1.13
2023-02-04T00:57:59.621Z,1.52
2023-02-04T01:00:28.453Z,1.13
2023-02-04T01:02:58.618Z,1.00
2023-02-04T01:05:27.259Z,1.00
2023-02-04T01:07:56.085Z,4.03
2023-02-04T01:10:24.624Z,2.45
2023-02-04T01:12:54.211Z,1.05
2023-02-04T01:15:23.208Z,0.80
2023-02-04T01:17:51.841Z,0.95
2023-02-04T01:20:21.889Z,1.85
2023-02-04T01:22:51.093Z,0.60
2023-02-04T01:25:20.058Z,7.63
2023-02-04T01:27:48.803Z,0.70
2023-02-04T01:30:17.480Z,1.75
2023-02-04T01:32:46.092Z,0.80
2023-02-04T01:35:14.697Z,0.73
2023-02-04T01:37:46.284Z,1.98
2023-02-04T01:40:15.016Z,1.05
2023-02-04T01:42:43.599Z,1.60
2023-02-04T01:45:12.865Z,0.70
2023-02-04T01:47:41.438Z,0.85
2023-02-04T01:50:13.121Z,2.90
2023-02-04T01:52:43.137Z,1.42
2023-02-04T01:55:16.101Z,1.17
2023-02-04T01:57:44.817Z,0.85
2023-02-04T02:00:18.839Z,1.98
2023-02-04T02:02:48.291Z,0.80
2023-02-04T02:05:18.121Z,1.02
2023-02-04T02:07:48.256Z,2.38
2023-02-04T02:10:17.132Z,1.58
2023-02-04T02:12:45.779Z,2.97
2023-02-04T02:15:14.587Z,0.90
2023-02-04T02:17:43.192Z,0.95
2023-02-04T02:20:13.073Z,1.20
2023-02-04T02:22:43.499Z,1.60
2023-02-04T02:25:14.554Z,1.15
2023-02-04T02:27:43.219Z,0.90
2023-02-04T02:30:12.858Z,1.33
2023-02-04T02:32:41.583Z,1.05
2023-02-04T02:35:10.522Z,3.03
2023-02-04T02:37:39.069Z,2.05
2023-02-04T02:40:08.443Z,1.30
2023-02-04T02:42:38.571Z,0.93
2023-02-04T02:45:11.967Z,3.83
2023-02-04T02:47:40.588Z,0.95
2023-02-04T02:50:10.951Z,1.02
2023-02-04T02:52:39.576Z,0.88
2023-02-04T02:55:13.262Z,1.85
2023-02-04T02:57:43.209Z,4.03
2023-02-04T03:00:16.843Z,2.58
2023-02-04T03:02:45.655Z,3.33
2023-02-04T03:05:14.311Z,6.05
2023-02-04T03:07:42.871Z,3.55
2023-02-04T03:10:11.662Z,1.70
2023-02-04T03:12:40.288Z,0.90
2023-02-04T03:15:10.865Z,1.67
2023-02-04T03:17:39.422Z,3.80
2023-02-04T03:20:08.601Z,0.85
2023-02-04T03:22:37.230Z,4.10
2023-02-04T03:25:06.183Z,1.77
2023-02-04T03:27:34.820Z,0.70
2023-02-04T03:30:04.183Z,1.98
2023-02-04T03:32:34.153Z,1.85
2023-02-04T03:35:03.568Z,2.13
2023-02-04T03:37:32.194Z,1.73
2023-02-04T03:40:00.813Z,2.42
2023-02-04T03:42:29.399Z,2.05
2023-02-04T03:44:58.015Z,4.07
2023-02-04T03:47:26.559Z,3.55
2023-02-04T03:49:57.196Z,3.83
2023-02-04T03:52:25.770Z,2.67
2023-02-04T03:54:54.356Z,1.38
2023-02-04T03:57:22.976Z,4.85
2023-02-04T03:59:51.543Z,9.68
2023-02-04T04:02:20.117Z,1.33
2023-02-04T04:04:48.759Z,1.95
2023-02-04T04:07:18.850Z,1.80
2023-02-04T04:09:47.392Z,1.95
2023-02-04T04:12:16.034Z,1.05
2023-02-04T04:14:44.661Z,0.82
2023-02-04T04:17:13.537Z,0.80
2023-02-04T04:19:43.926Z,0.77
2023-02-04T04:22:12.560Z,1.15
2023-02-04T04:24:42.742Z,1.05
2023-02-04T04:27:11.264Z,2.15
2023-02-04T04:29:39.857Z,0.98
2023-02-04T04:32:09.665Z,3.22
2023-02-04T04:34:38.368Z,2.00
2023-02-04T04:37:06.966Z,2.65
2023-02-04T04:39:35.483Z,1.58
2023-02-04T04:42:07.403Z,3.08
2023-02-04T04:44:36.008Z,0.70
2023-02-04T04:47:04.671Z,1.92
2023-02-04T04:49:33.221Z,0.95
2023-02-04T04:52:01.796Z,2.10
2023-02-04T04:54:30.344Z,3.08
2023-02-04T04:56:58.945Z,3.13
2023-02-04T04:59:28.840Z,1.50
2023-02-04T05:01:57.433Z,1.45
2023-02-04T05:04:26.000Z,2.25
2023-02-04T05:06:55.210Z,0.88
2023-02-04T05:09:23.819Z,1.00
2023-02-04T05:11:52.393Z,1.77
2023-02-04T05:14:20.966Z,2.88
2023-02-04T05:16:51.193Z,5.85
2023-02-04T05:19:19.712Z,0.88
2023-02-04T05:21:48.497Z,5.43
2023-02-04T05:24:17.079Z,2.58
2023-02-04T05:26:45.776Z,6.20
2023-02-04T05:29:14.308Z,3.20
2023-02-04T05:31:42.965Z,1.73
2023-02-04T05:34:12.992Z,2.17
2023-02-04T05:36:41.529Z,5.07
2023-02-04T05:39:10.109Z,3.25
2023-02-04T05:41:40.687Z,0.70
2023-02-04T05:44:09.207Z,5.20
2023-02-04T05:46:39.282Z,6.72
2023-02-04T05:49:08.276Z,0.70
2023-02-04T05:51:38.280Z,7.15
2023-02-04T05:54:06.873Z,4.60
2023-02-04T05:56:36.615Z,2.50
2023-02-04T05:59:05.163Z,5.47
2023-02-04T06:01:33.773Z,1.73
2023-02-04T06:04:02.349Z,1.20
2023-02-04T06:06:30.974Z,0.93
2023-02-04T06:09:00.965Z,1.00
2023-02-04T06:11:29.534Z,1.23
2023-02-04T06:13:58.077Z,3.33
2023-02-04T06:16:26.689Z,3.22
2023-02-04T06:18:55.267Z,2.25
2023-02-04T06:21:24.086Z,3.45
2023-02-04T06:23:52.669Z,2.00
2023-02-04T06:26:22.673Z,1.48
2023-02-04T06:28:51.241Z,3.20
2023-02-04T06:31:19.873Z,1.80
2023-02-04T06:33:48.615Z,0.80
2023-02-04T06:36:17.168Z,3.28
2023-02-04T06:38:45.747Z,1.10
2023-02-04T06:41:14.284Z,2.17
2023-02-04T06:43:44.222Z,3.13
2023-02-04T06:46:12.766Z,1.65
2023-02-04T06:48:41.380Z,3.60
2023-02-04T06:51:10.024Z,0.70
2023-02-04T06:53:40.545Z,2.05
2023-02-04T06:56:09.627Z,2.40
2023-02-04T06:58:38.262Z,1.52
2023-02-04T07:01:08.581Z,4.60
2023-02-04T07:03:37.222Z,1.55
2023-02-04T07:06:05.912Z,3.45
2023-02-04T07:08:34.680Z,1.55
2023-02-04T07:11:03.312Z,1.05
2023-02-04T07:13:31.902Z,4.65
2023-02-04T07:16:00.626Z,8.00
2023-02-04T07:18:30.652Z,1.42
2023-02-04T07:21:00.229Z,6.75
2023-02-04T07:23:29.007Z,0.93
2023-02-04T07:25:59.442Z,3.50
2023-02-04T07:28:28.078Z,5.75
2023-02-04T07:30:56.728Z,1.52
2023-02-04T07:33:25.439Z,2.28
2023-02-04T07:35:55.866Z,2.33
2023-02-04T07:38:24.420Z,1.65
2023-02-04T07:40:53.010Z,5.38
2023-02-04T07:43:21.881Z,1.50
2023-02-04T07:45:50.502Z,1.77
2023-02-04T07:48:19.395Z,2.15
2023-02-04T07:50:48.098Z,3.38
2023-02-04T07:53:18.162Z,1.58
2023-02-04T07:55:46.769Z,7.05
2023-02-04T07:58:15.402Z,2.35
2023-02-04T08:00:44.056Z,1.92
2023-02-04T08:03:12.678Z,2.35
2023-02-04T08:05:41.257Z,1.63
2023-02-04T08:08:09.909Z,3.05
2023-02-04T08:10:39.839Z,2.30
2023-02-04T08:13:08.413Z,2.85
2023-02-04T08:15:37.084Z,2.90
2023-02-04T08:18:05.722Z,3.67
2023-02-04T08:20:34.549Z,2.15
2023-02-04T08:23:06.126Z,2.00
2023-02-04T08:25:35.019Z,3.13
2023-02-04T08:28:05.218Z,2.55
2023-02-04T08:30:34.122Z,2.25
2023-02-04T08:33:03.294Z,0.82
2023-02-04T08:35:31.835Z,1.75
2023-02-04T08:38:00.418Z,1.60
2023-02-04T08:40:29.381Z,1.48
2023-02-04T08:42:58.003Z,1.60
2023-02-04T08:45:28.033Z,1.10
2023-02-04T08:47:56.681Z,9.35
2023-02-04T08:50:25.327Z,1.90
2023-02-04T08:52:53.907Z,4.70
2023-02-04T08:55:22.509Z,1.58
2023-02-04T08:57:51.077Z,3.58
2023-02-04T09:00:19.881Z,0.80
2023-02-04T09:02:49.876Z,2.47
2023-02-04T09:05:18.636Z,1.60
2023-02-04T09:07:47.227Z,1.65
2023-02-04T09:10:16.033Z,1.33
2023-02-04T09:12:44.586Z,2.42
2023-02-04T09:15:13.518Z,1.50
2023-02-04T09:17:43.943Z,5.20
2023-02-04T09:20:14.298Z,1.35
2023-02-04T09:22:42.892Z,3.80
2023-02-04T09:25:11.501Z,1.20
2023-02-04T09:27:40.149Z,2.25
2023-02-04T09:30:10.457Z,4.20
2023-02-04T09:32:39.129Z,2.20
2023-02-04T09:35:08.039Z,1.50
2023-02-04T09:37:37.987Z,2.42
2023-02-04T09:40:07.434Z,1.88
2023-02-04T09:42:36.018Z,2.25
2023-02-04T09:45:04.777Z,3.53
2023-02-04T09:47:33.391Z,1.20
2023-02-04T09:50:01.999Z,1.80
2023-02-04T09:52:30.659Z,3.42
2023-02-04T09:55:00.626Z,8.23
2023-02-04T09:57:30.373Z,2.35
2023-02-04T09:59:58.981Z,1.25
2023-02-04T10:02:27.867Z,1.05
2023-02-04T10:04:57.840Z,2.13
2023-02-04T10:07:27.426Z,1.27
2023-02-04T10:09:56.033Z,1.88
2023-02-04T10:12:27.258Z,1.20
2023-02-04T10:14:55.776Z,5.07
2023-02-04T10:17:24.362Z,2.53
2023-02-04T10:19:53.075Z,1.00
2023-02-04T10:22:22.972Z,1.00
2023-02-04T10:24:51.574Z,2.22
2023-02-04T10:27:20.262Z,0.80
2023-02-04T10:29:58.488Z,2.22
2023-02-04T10:32:28.912Z,20.00
2023-02-04T10:35:01.675Z,32.53
2023-02-04T10:37:32.079Z,5.67
2023-02-04T10:40:00.701Z,5.55
2023-02-04T10:42:30.026Z,2.03
2023-02-04T10:45:00.168Z,4.93
2023-02-04T10:47:31.780Z,1.10
2023-02-04T10:50:02.893Z,2.67
2023-02-04T10:52:35.345Z,7.80
2023-02-04T10:55:04.957Z,4.57
2023-02-04T10:57:33.479Z,1.07
2023-02-04T11:00:04.338Z,1.97
2023-02-04T11:02:43.085Z,1.25
2023-02-04T11:05:16.484Z,0.87
2023-02-04T11:07:45.786Z,1.95
2023-02-04T11:10:18.121Z,0.80
2023-02-04T11:12:47.979Z,1.42
2023-02-04T11:15:41.000Z,0.95
2023-02-04T11:18:10.789Z,1.37
2023-02-04T11:20:40.013Z,0.77
2023-02-04T11:23:30.914Z,2.72
2023-02-04T11:26:14.434Z,1.67
2023-02-04T11:28:51.211Z,1.90
2023-02-04T11:31:42.556Z,8.43
2023-02-04T11:34:31.164Z,5.83
2023-02-04T11:37:17.346Z,5.10
2023-02-04T11:39:46.535Z,1.70
2023-02-04T11:42:19.975Z,0.70
2023-02-04T11:44:55.330Z,1.03
2023-02-04T11:47:26.658Z,0.90
2023-02-04T11:49:57.884Z,0.60
2023-02-04T11:52:27.053Z,1.98
2023-02-04T11:54:56.427Z,1.70
2023-02-04T11:57:25.027Z,0.73
2023-02-04T11:59:53.672Z,0.50
2023-02-04T12:02:23.635Z,2.83
2023-02-04T12:04:54.959Z,0.70
2023-02-04T12:07:28.457Z,0.90
2023-02-04T12:09:57.561Z,1.07
2023-02-04T12:12:27.554Z,0.60
2023-02-04T12:15:02.120Z,0.80
2023-02-04T12:17:30.777Z,0.93
2023-02-04T12:20:00.841Z,0.50
2023-02-04T12:22:29.502Z,0.60
2023-02-04T12:24:58.106Z,0.77
2023-02-04T12:27:26.722Z,1.90
2023-02-04T12:29:55.693Z,5.67
2023-02-04T12:32:24.288Z,1.13
2023-02-04T12:34:52.897Z,1.77
2023-02-04T12:37:22.900Z,0.60
2023-02-04T12:39:51.505Z,1.07
2023-02-04T12:42:20.103Z,1.00
2023-02-04T12:44:48.788Z,0.87
2023-02-04T12:47:17.471Z,1.27
2023-02-04T12:49:46.654Z,0.70
2023-02-04T12:52:15.258Z,1.27
2023-02-04T12:54:45.285Z,0.50
2023-02-04T12:57:19.583Z,1.05
2023-02-04T12:59:48.994Z,4.88
2023-02-04T13:02:17.682Z,0.80
2023-02-04T13:04:46.409Z,0.50
2023-02-04T13:07:15.036Z,0.93
2023-02-04T13:09:45.180Z,0.60
2023-02-04T13:12:14.302Z,0.80
2023-02-04T13:14:42.921Z,0.60
2023-02-04T13:17:11.610Z,1.55
2023-02-04T13:19:40.219Z,0.80
2023-02-04T13:22:08.893Z,1.15
2023-02-04T13:24:37.590Z,0.98
2023-02-04T13:27:07.800Z,2.00
2023-02-04T13:29:36.602Z,0.68
2023-02-04T13:32:05.412Z,0.60
2023-02-04T13:34:34.090Z,0.60
2023-02-04T13:37:02.725Z,0.60
2023-02-04T13:39:31.341Z,3.13
2023-02-04T13:41:59.979Z,0.43
2023-02-04T13:44:29.945Z,4.03
2023-02-04T13:46:59.557Z,0.82
2023-02-04T13:49:28.180Z,1.40
2023-02-04T13:51:56.868Z,5.18
2023-02-04T13:54:25.569Z,0.50
2023-02-04T13:56:54.207Z,0.70
2023-02-04T13:59:22.962Z,0.60
2023-02-04T14:01:53.026Z,0.60
2023-02-04T14:04:21.644Z,0.63
2023-02-04T14:06:50.216Z,1.50
2023-02-04T14:09:19.430Z,3.03
2023-02-04T14:11:48.015Z,1.90
2023-02-04T14:14:16.642Z,0.75
2023-02-04T14:16:45.315Z,1.07
2023-02-04T14:19:15.318Z,0.60
2023-02-04T14:21:43.938Z,0.70
2023-02-04T14:24:12.879Z,0.70
2023-02-04T14:26:41.470Z,0.65
2023-02-04T14:29:11.152Z,1.98
2023-02-04T14:31:40.624Z,0.63
2023-02-04T14:34:09.278Z,0.80
2023-02-04T14:36:39.264Z,0.80
2023-02-04T14:39:07.856Z,0.60
2023-02-04T14:41:36.554Z,0.60
2023-02-04T14:44:05.334Z,0.57
2023-02-04T14:46:33.939Z,1.10
2023-02-04T14:49:02.548Z,0.57
2023-02-04T14:51:31.106Z,2.05
2023-02-04T14:54:02.577Z,0.63
2023-02-04T14:56:31.202Z,0.52
2023-02-04T14:58:59.805Z,0.85
2023-02-04T15:01:28.554Z,2.45
2023-02-04T15:03:57.253Z,0.60
2023-02-04T15:06:25.873Z,0.82
2023-02-04T15:08:54.472Z,0.63
2023-02-04T15:11:24.458Z,0.60
2023-02-04T15:13:53.080Z,1.20
2023-02-04T15:16:21.714Z,1.67
2023-02-04T15:18:50.546Z,2.15
2023-02-04T15:21:19.462Z,1.65
2023-02-04T15:23:48.526Z,3.55
2023-02-04T15:26:17.463Z,0.88
2023-02-04T15:28:47.388Z,0.60
2023-02-04T15:31:15.982Z,1.27
2023-02-04T15:33:45.574Z,1.73
2023-02-04T15:36:14.411Z,0.50
2023-02-04T15:38:43.004Z,1.85
2023-02-04T15:41:11.592Z,0.60
2023-02-04T15:43:40.556Z,0.65
2023-02-04T15:46:10.649Z,0.75
2023-02-04T15:48:39.253Z,0.70
2023-02-04T15:51:08.016Z,0.90
2023-02-04T15:53:37.632Z,0.73
2023-02-04T15:56:06.779Z,0.85
2023-02-04T15:58:35.485Z,1.95
2023-02-04T16:01:04.071Z,5.32
2023-02-04T16:03:34.035Z,1.60
2023-02-04T16:06:03.117Z,2.67
2023-02-04T16:08:31.649Z,0.98
2023-02-04T16:11:00.233Z,1.10
2023-02-04T16:13:28.850Z,0.80
2023-02-04T16:15:57.542Z,1.23
2023-02-04T16:18:26.391Z,2.05
2023-02-04T16:20:56.463Z,0.90
2023-02-04T16:23:25.060Z,1.13
2023-02-04T16:25:53.660Z,1.20
2023-02-04T16:28:22.489Z,1.15
2023-02-04T16:30:51.221Z,2.45
2023-02-04T16:33:19.914Z,3.70
2023-02-04T16:36:00.539Z,1.85
2023-02-04T16:38:29.343Z,1.33
2023-02-04T16:40:58.136Z,2.25
2023-02-04T16:43:26.884Z,4.47
2023-02-04T16:45:55.500Z,1.10
2023-02-04T16:48:24.178Z,1.98
2023-02-04T16:50:52.717Z,1.30
2023-02-04T16:53:22.809Z,1.33
2023-02-04T16:55:51.370Z,1.45
2023-02-04T16:58:19.913Z,1.00
2023-02-04T17:00:50.182Z,1.42
2023-02-04T17:03:18.744Z,6.07
2023-02-04T17:05:47.318Z,1.00
2023-02-04T17:08:17.652Z,1.00
2023-02-04T17:11:19.770Z,2.15
2023-02-04T17:13:48.378Z,1.10
2023-02-04T17:16:18.615Z,3.63
2023-02-04T17:18:47.277Z,1.70
2023-02-04T17:21:15.895Z,0.98
2023-02-04T17:23:45.139Z,2.25
2023-02-04T17:26:15.342Z,1.48
2023-02-04T17:28:43.982Z,1.58
2023-02-04T17:31:12.812Z,1.30
2023-02-04T17:33:41.922Z,2.05
2023-02-04T17:36:13.673Z,0.80
2023-02-04T17:38:42.389Z,1.08
2023-02-04T17:41:11.057Z,1.35
2023-02-04T17:43:41.059Z,1.40
2023-02-04T17:46:09.706Z,1.00
2023-02-04T17:48:38.717Z,1.48
2023-02-04T17:51:07.627Z,2.28
2023-02-04T17:53:38.690Z,3.97
2023-02-04T17:56:10.774Z,2.22
2023-02-04T17:58:40.933Z,1.88
2023-02-04T18:01:16.100Z,2.55
2023-02-04T18:03:46.274Z,3.22
2023-02-04T18:06:20.600Z,2.85
2023-02-04T18:08:49.269Z,1.08
2023-02-04T18:11:19.806Z,1.30
2023-02-04T18:13:50.716Z,1.10
2023-02-04T18:16:24.395Z,3.42
2023-02-04T18:18:54.673Z,4.78
2023-02-04T18:21:24.847Z,3.90
2023-02-04T18:24:01.343Z,3.05
2023-02-04T18:26:29.995Z,6.35
2023-02-04T18:29:00.028Z,3.95
2023-02-04T18:31:34.734Z,7.90
2023-02-04T18:34:03.773Z,3.30
2023-02-04T18:36:32.649Z,4.60
2023-02-04T18:39:01.339Z,5.68
2023-02-04T18:41:33.904Z,4.78
2023-02-04T18:44:26.645Z,4.00
2023-02-04T18:46:55.335Z,5.60
2023-02-04T18:49:27.095Z,7.60
2023-02-04T18:51:55.788Z,7.55
2023-02-04T18:54:29.620Z,7.70
2023-02-04T18:57:16.114Z,9.00
2023-02-04T18:59:46.782Z,7.70
2023-02-04T19:02:29.575Z,5.00
2023-02-04T19:05:12.691Z,4.53
2023-02-04T19:07:42.262Z,7.82
2023-02-04T19:10:31.448Z,7.70
2023-02-04T19:13:01.960Z,6.80
2023-02-04T19:15:35.879Z,9.50
2023-02-04T19:18:08.591Z,5.88
2023-02-04T19:20:38.668Z,6.05
2023-02-04T19:23:10.714Z,6.03
2023-02-04T19:25:43.895Z,5.00
2023-02-04T19:28:25.674Z,4.15
2023-02-04T19:31:00.927Z,3.90
2023-02-04T19:33:32.511Z,5.03
2023-02-04T19:36:08.968Z,3.13
2023-02-04T19:38:41.552Z,3.42
2023-02-04T19:41:31.292Z,2.97
2023-02-04T19:44:25.230Z,3.10
2023-02-04T19:46:55.365Z,3.00
2023-02-04T19:49:25.155Z,4.68
2023-02-04T19:51:54.610Z,6.65
2023-02-04T19:54:25.118Z,7.03
2023-02-04T19:56:54.200Z,3.78
2023-02-04T19:59:27.781Z,9.57
2023-02-04T20:02:01.740Z,6.20
2023-02-04T20:04:33.700Z,2.20
2023-02-04T20:07:02.334Z,2.50
2023-02-04T20:09:31.022Z,3.35
2023-02-04T20:12:05.741Z,2.78
2023-02-04T20:14:47.887Z,4.03
2023-02-04T20:17:48.165Z,3.35
2023-02-04T20:20:22.496Z,3.75
2023-02-04T20:22:52.712Z,4.25
2023-02-04T20:25:43.771Z,3.20
2023-02-04T20:28:44.781Z,5.03
2023-02-04T20:31:28.664Z,3.17
2023-02-04T20:33:59.494Z,1.90
2023-02-04T20:36:38.254Z,3.40
2023-02-04T20:39:34.518Z,2.72
2023-02-04T20:42:36.695Z,2.90
2023-02-04T20:45:27.780Z,3.38
2023-02-04T20:47:58.324Z,3.30
2023-02-04T20:50:41.162Z,2.97
2023-02-04T20:53:22.861Z,2.28
2023-02-04T20:55:52.976Z,3.28
2023-02-04T20:58:23.029Z,3.05
2023-02-04T21:00:53.870Z,3.08
2023-02-04T21:03:34.795Z,3.55
2023-02-04T21:06:07.204Z,5.25
2023-02-04T21:08:38.187Z,3.75
2023-02-04T21:11:06.964Z,6.78
2023-02-04T21:13:35.773Z,6.57
2023-02-04T21:16:05.673Z,3.15
2023-02-04T21:18:35.068Z,5.40
2023-02-04T21:21:06.785Z,3.20
2023-02-04T21:23:35.807Z,4.00
2023-02-04T21:26:04.530Z,2.55
2023-02-04T21:28:33.414Z,3.28
2023-02-04T21:31:02.114Z,5.20
2023-02-04T21:33:30.967Z,7.72
2023-02-04T21:35:59.547Z,3.47
2023-02-04T21:38:29.673Z,4.65
2023-02-04T21:40:58.349Z,5.95
2023-02-04T21:43:27.046Z,5.03
2023-02-04T21:45:55.695Z,8.48
2023-02-04T21:48:24.695Z,3.92
2023-02-04T21:50:53.894Z,5.53
2023-02-04T21:53:22.600Z,4.60
2023-02-04T21:55:52.554Z,3.65
2023-02-04T21:58:21.139Z,3.20
2023-02-04T22:00:49.764Z,3.97
2023-02-04T22:03:18.532Z,3.45
2023-02-04T22:05:47.244Z,5.82
2023-02-04T22:08:15.844Z,3.60
2023-02-04T22:10:44.475Z,2.95
2023-02-04T22:13:14.730Z,6.45
2023-02-04T22:15:43.414Z,3.40
2023-02-04T22:18:12.127Z,3.97
2023-02-04T22:20:40.912Z,3.67
2023-02-04T22:23:09.595Z,4.60
2023-02-04T22:25:38.289Z,3.55
2023-02-04T22:28:07.259Z,3.83
2023-02-04T22:30:37.759Z,4.47
2023-02-04T22:33:07.607Z,4.72
2023-02-04T22:35:37.340Z,4.07
2023-02-04T22:38:06.027Z,5.90
2023-02-04T22:40:34.847Z,7.88
2023-02-04T22:43:04.672Z,8.77
2023-02-04T22:45:33.649Z,5.32
2023-02-04T22:48:04.019Z,7.60
2023-02-04T22:50:32.688Z,7.45
2023-02-04T22:53:01.290Z,5.05
2023-02-04T22:55:29.978Z,7.38
2023-02-04T22:57:58.623Z,4.20
2023-02-04T23:00:27.364Z,5.55
2023-02-04T23:02:56.557Z,5.07
2023-02-04T23:05:26.581Z,9.85
2023-02-04T23:07:55.243Z,3.65
2023-02-04T23:10:23.931Z,7.95
2023-02-04T23:12:52.496Z,5.60
2023-02-04T23:15:21.068Z,12.38
2023-02-04T23:17:49.722Z,45.47
2023-02-04T23:20:18.852Z,53.90
2023-02-04T23:22:49.594Z,43.95
2023-02-04T23:25:18.319Z,39.35
2023-02-04T23:27:47.000Z,46.55
2023-02-04T23:30:16.247Z,21.15
2023-02-04T23:32:44.842Z,27.48
2023-02-04T23:35:13.545Z,19.77
2023-02-04T23:37:42.177Z,15.38
2023-02-04T23:40:13.121Z,11.10
2023-02-04T23:42:42.673Z,5.32
2023-02-04T23:45:11.800Z,5.82
2023-02-04T23:47:40.427Z,6.57
2023-02-04T23:50:09.851Z,7.20
2023-02-04T23:52:38.549Z,3.63
2023-02-04T23:55:07.791Z,5.35
2023-02-04T23:57:38.958Z,3.42
